Terminal Aerodrome Forecast
Issued by NWS

Home | Current Version | Previous Version | Text Only | Print | Product List | Glossary On
Versions: 1 2 3 4 5 6 7 8 9 10 11 12 13 14 15 16 17 18 19 20 21 22 23 24
379
FTUS43 KFGF 200521 AAA
TAFTVF
TAF AMD
KTVF 200521Z 2005/2106 13013KT P6SM BKN200 WS020/18045KT
     FM201000 14013KT P6SM OVC080
     FM201400 16010KT P6SM OVC040
      TEMPO 2014/2017 3SM -RA BR OVC015
     FM201800 20009KT P6SM VCSH OVC015
     FM202100 25012KT P6SM BKN080=

USA.gov is the U.S. government's official web portal to all federal, state and local government web resources and services.